createdAt,value
2019-01-17T06:50:39.169Z,31.665039
2019-01-17T06:50:48.910Z,32.763672
2019-01-17T06:50:58.766Z,31.365967
2019-01-17T06:51:08.432Z,31.164551
2019-01-17T06:51:18.212Z,31.164551
2019-01-17T06:51:27.533Z,31.164551
2019-01-17T06:51:36.827Z,31.066895
2019-01-17T06:51:46.317Z,30.963135
2019-01-17T06:51:55.872Z,30.865479
2019-01-17T06:52:06.867Z,30.865479
2019-01-17T06:52:16.731Z,30.767822
2019-01-17T06:52:26.631Z,30.865479
2019-01-17T06:52:36.252Z,30.963135
2019-01-17T06:52:45.487Z,30.865479
2019-01-17T06:52:55.007Z,30.767822
2019-01-17T06:53:05.287Z,30.865479
2019-01-17T06:53:14.468Z,30.865479
2019-01-17T06:53:23.967Z,30.865479
2019-01-17T06:53:36.991Z,30.664062
2019-01-17T06:53:46.792Z,30.664062
2019-01-17T06:53:56.251Z,31.365967
2019-01-17T06:54:05.734Z,31.463623
2019-01-17T06:54:17.507Z,32.165527
2019-01-17T06:54:27.051Z,32.763672
2019-01-17T06:54:36.610Z,32.562256
2019-01-17T06:54:46.248Z,32.763672
2019-01-17T06:54:55.649Z,32.4646
2019-01-17T06:55:06.750Z,31.762695
2019-01-17T06:55:16.750Z,31.866455
2019-01-17T06:55:26.193Z,32.165527
2019-01-17T06:55:38.606Z,32.165527
2019-01-17T06:55:48.190Z,33.361816
2019-01-17T06:55:57.651Z,32.4646
2019-01-17T06:56:08.907Z,31.866455
2019-01-17T06:56:18.151Z,31.762695
2019-01-17T06:56:27.673Z,31.665039
2019-01-17T06:56:37.198Z,31.567383
2019-01-17T06:56:46.352Z,31.463623
2019-01-17T06:56:55.731Z,31.365967
2019-01-17T06:57:05.306Z,31.365967
2019-01-17T06:57:14.552Z,31.262207
2019-01-17T06:57:23.914Z,31.164551
2019-01-17T06:57:33.126Z,31.066895
2019-01-17T06:57:42.420Z,31.066895
2019-01-17T06:57:51.825Z,31.066895
2019-01-17T06:58:01.212Z,31.066895
2019-01-17T06:58:10.630Z,31.066895
2019-01-17T06:58:20.531Z,31.066895
2019-01-17T06:58:31.952Z,31.066895
2019-01-17T06:58:43.023Z,31.164551
2019-01-17T06:58:53.152Z,31.066895
2019-01-17T06:59:05.210Z,31.066895
2019-01-17T06:59:15.866Z,31.066895
2019-01-17T06:59:25.706Z,31.066895
2019-01-17T06:59:37.967Z,30.963135
2019-01-17T06:59:47.650Z,30.963135
2019-01-17T06:59:57.490Z,30.865479
2019-01-17T07:00:07.317Z,30.865479
2019-01-17T07:00:17.830Z,30.865479
2019-01-17T07:00:27.891Z,30.865479
2019-01-17T07:00:38.172Z,30.963135
2019-01-17T07:00:48.811Z,30.963135
2019-01-17T07:01:00.432Z,30.963135
2019-01-17T07:01:09.947Z,30.963135
2019-01-17T07:01:20.350Z,30.963135
2019-01-17T07:01:30.271Z,31.066895
2019-01-17T07:01:40.192Z,31.066895
2019-01-17T07:01:50.711Z,30.963135
2019-01-17T07:02:00.166Z,30.963135
2019-01-17T07:02:11.259Z,30.963135
2019-01-17T07:02:20.828Z,30.963135
2019-01-17T07:02:30.826Z,30.963135
2019-01-17T07:02:40.686Z,30.963135
2019-01-17T07:02:50.150Z,30.963135
2019-01-17T07:02:59.371Z,31.066895
2019-01-17T07:03:09.732Z,30.963135
2019-01-17T07:03:19.926Z,30.963135
2019-01-17T07:03:29.308Z,30.963135
2019-01-17T07:03:38.666Z,31.066895
2019-01-17T07:03:49.552Z,31.066895
2019-01-17T07:03:59.626Z,31.066895
2019-01-17T07:04:10.550Z,31.066895
2019-01-17T07:04:21.166Z,31.066895
2019-01-17T07:04:32.172Z,31.066895
2019-01-17T07:04:41.770Z,31.066895
2019-01-17T07:04:51.245Z,31.164551
2019-01-17T07:05:00.875Z,31.066895
2019-01-17T07:05:10.648Z,31.066895
2019-01-17T07:05:20.588Z,31.066895
2019-01-17T07:05:30.512Z,31.365967
2019-01-17T07:05:40.490Z,31.365967
2019-01-17T07:05:51.066Z,31.463623
2019-01-17T07:06:00.811Z,31.567383
2019-01-17T07:06:10.691Z,31.762695
2019-01-17T07:06:20.450Z,31.762695
2019-01-17T07:06:30.332Z,31.762695
2019-01-17T07:06:39.909Z,31.665039
2019-01-17T07:06:50.792Z,31.665039
2019-01-17T07:07:01.207Z,31.567383
2019-01-17T07:07:11.131Z,31.567383
2019-01-17T07:07:20.605Z,31.463623
2019-01-17T07:07:30.146Z,31.463623
2019-01-17T07:07:39.810Z,31.463623
2019-01-17T07:07:49.510Z,31.365967
2019-01-17T07:07:59.265Z,31.365967
2019-01-17T07:08:08.924Z,31.365967
2019-01-17T07:08:19.211Z,31.365967
2019-01-17T07:08:28.791Z,31.463623
2019-01-17T07:08:38.790Z,31.463623
2019-01-17T07:08:48.450Z,31.463623
2019-01-17T07:08:59.171Z,31.463623
2019-01-17T07:09:09.592Z,31.463623
2019-01-17T07:09:19.907Z,31.567383
2019-01-17T07:09:30.208Z,31.567383
2019-01-17T07:09:41.588Z,31.665039
2019-01-17T07:09:51.289Z,31.567383
2019-01-17T07:10:01.113Z,31.463623
2019-01-17T07:55:25.991Z,30.92041
2019-01-17T07:55:38.732Z,30.822754
2019-01-17T07:55:53.270Z,31.518555
2019-01-17T07:56:04.235Z,30.419922
2019-01-17T07:56:15.972Z,30.023193
2019-01-17T07:56:26.653Z,29.327393
2019-01-17T07:56:36.713Z,26.843262
2019-01-17T07:56:49.346Z,26.45874
2019-01-17T07:56:59.299Z,26.483154
2019-01-17T07:57:08.913Z,26.934814
2019-01-17T07:57:18.752Z,27.990723
2019-01-17T07:57:29.231Z,29.272461
2019-01-17T07:57:39.168Z,31.274414
2019-01-17T07:57:49.251Z,32.635498
2019-01-17T07:57:59.270Z,33.673096
2019-01-17T07:58:10.468Z,34.924316
2019-01-17T07:58:20.531Z,35.662842
2019-01-17T07:58:31.152Z,36.529541
2019-01-17T07:58:40.933Z,37.799072
2019-01-17T07:58:51.411Z,38.970947
2019-01-17T07:59:01.587Z,40.570068
2019-01-17T07:59:11.471Z,41.815186
2019-01-17T07:59:22.229Z,42.999268
2019-01-17T07:59:32.469Z,44.348145
2019-01-17T07:59:42.593Z,45.410156
2019-01-17T07:59:52.573Z,46.759033
2019-01-17T08:00:03.026Z,47.192383
2019-01-17T08:00:12.692Z,47.521973
2019-01-17T08:00:24.367Z,48.059082
2019-01-17T08:00:35.708Z,48.571777
2019-01-17T08:00:47.271Z,49.102783
2019-01-17T08:00:59.693Z,49.536133
2019-01-17T08:01:14.946Z,49.945068
2019-01-17T08:01:22.210Z,50.585938
2019-01-17T08:01:32.612Z,51.123047
2019-01-17T08:01:44.809Z,51.867676
2019-01-17T08:01:55.773Z,52.484131
2019-01-17T08:02:06.032Z,52.587891
2019-01-17T08:02:17.268Z,52.893066
2019-01-17T08:02:27.110Z,52.996826
2019-01-17T08:02:38.648Z,53.02124
2019-01-17T08:02:49.132Z,53.125
2019-01-17T08:03:02.107Z,54.46167
2019-01-17T08:03:13.812Z,54.35791
2019-01-17T08:03:23.812Z,54.974365
2019-01-17T08:03:34.649Z,54.589844
2019-01-17T08:03:45.752Z,54.174805
2019-01-17T08:03:56.452Z,54.278564
2019-01-17T08:04:09.107Z,54.382324
2019-01-17T08:04:18.504Z,54.510498
2019-01-17T08:04:28.427Z,54.614258
2019-01-17T08:04:38.824Z,54.718018
2019-01-17T08:04:48.848Z,54.943848
2019-01-17T08:04:59.268Z,55.59082
2019-01-17T08:05:09.346Z,56.335449
2019-01-17T08:05:18.808Z,56.646729
2019-01-17T08:05:28.823Z,56.750488
2019-01-17T08:05:38.303Z,56.854248
2019-01-17T08:05:50.303Z,57.159424
2019-01-17T08:06:01.347Z,57.391357
2019-01-17T08:06:15.406Z,57.598877
2019-01-17T08:06:34.747Z,58.215332
2019-01-17T08:06:45.314Z,58.422852
2019-01-17T08:06:58.892Z,59.039307
2019-01-17T08:07:09.046Z,59.350586
2019-01-17T08:07:18.792Z,59.661865
2019-01-17T08:07:28.888Z,61.413574
2019-01-17T08:07:40.531Z,60.5896
2019-01-17T08:07:50.787Z,59.454346
2019-01-17T08:08:03.311Z,59.014893
2019-01-17T08:08:13.627Z,59.326172
2019-01-17T08:08:24.111Z,59.326172
2019-01-17T08:08:34.329Z,58.911133
2019-01-17T08:08:44.191Z,58.807373
2019-01-17T08:08:55.411Z,58.190918
2019-01-17T08:09:06.929Z,59.838867
2019-01-17T08:09:20.509Z,65.161133
2019-01-17T08:09:31.309Z,69.250488
2019-01-17T08:09:41.506Z,73.846436
2019-01-17T08:09:58.250Z,76.379395
2019-01-17T08:10:08.389Z,81.384277
2019-01-17T08:10:18.846Z,81.140137
2019-01-17T08:10:30.232Z,79.150391
2019-01-17T08:10:39.770Z,77.166748
2019-01-17T08:10:49.863Z,75.592041
2019-01-17T08:11:03.708Z,74.32251
2019-01-17T08:11:13.552Z,73.571777
2019-01-17T08:11:24.972Z,72.30835
2019-01-17T08:11:35.451Z,71.252441
2019-01-17T08:11:45.230Z,70.605469
2019-01-17T08:11:54.952Z,69.854736
2019-01-17T08:12:08.846Z,68.701172
2019-01-17T08:12:18.910Z,67.84668
2019-01-17T08:12:28.593Z,66.998291
2019-01-17T08:12:37.947Z,66.052246
2019-01-17T08:12:47.931Z,65.100098
2019-01-17T08:12:58.868Z,63.946533
2019-01-17T08:13:08.530Z,63.201904
2019-01-17T08:13:19.355Z,62.463379
2019-01-17T08:13:29.123Z,61.853027
2019-01-17T08:13:38.992Z,61.004639
2019-01-17T08:13:48.870Z,60.369873
2019-01-17T08:13:58.504Z,60.03418
2019-01-17T08:14:08.251Z,59.49707
2019-01-17T08:14:18.545Z,59.088135
2019-01-17T08:14:28.149Z,58.557129
2019-01-17T08:14:37.849Z,58.02002
2019-01-17T08:14:47.993Z,57.513428
2019-01-17T08:14:58.025Z,56.872559
2019-01-17T08:15:07.566Z,56.439209
2019-01-17T08:15:17.373Z,56.036377
2019-01-17T08:15:28.012Z,55.499268
2019-01-17T08:15:37.510Z,54.864502
2019-01-17T08:15:46.852Z,54.35791
2019-01-17T08:15:57.993Z,53.930664
2019-01-17T08:16:07.325Z,54.437256
2019-01-17T08:16:17.175Z,54.107666
2019-01-17T08:16:27.272Z,53.399658
2019-01-17T08:16:36.850Z,52.764893
2019-01-17T08:16:47.611Z,52.435303
2019-01-17T08:16:58.771Z,52.032471
2019-01-17T08:17:11.498Z,51.397705
2019-01-17T08:17:21.351Z,50.994873
2019-01-17T08:17:31.066Z,50.866699
2019-01-17T08:17:41.108Z,50.769043
